Time;durP1;ratioP1;P1;durP2;ratioP2;P2;SDS_P1;SDS_P2;PMS_P1;PMS_P2;Temp;Humidity;BMP_temperature;BMP_pressure;BME280_temperature;BME280_humidity;BME280_pressure;Samples;Min_cycle;Max_cycle;Signal;HPM_P1;HPM_P2
2022/08/27 00:01:48;;;;;;;34.13;22.47;;;;;;;18.86;100.00;101402.94;5034108;28;20463;-52
2022/08/27 00:04:16;;;;;;;29.73;21.13;;;;;;;18.80;100.00;101401.19;5033169;28;20550;-51
2022/08/27 00:06:43;;;;;;;34.80;22.30;;;;;;;18.76;100.00;101400.00;5034554;28;20439;-50
2022/08/27 00:09:13;;;;;;;32.53;22.10;;;;;;;18.74;100.00;101399.41;5033656;28;20818;-52
2022/08/27 00:11:43;;;;;;;32.43;22.00;;;;;;;18.77;100.00;101407.06;5033789;28;20465;-52
2022/08/27 00:14:11;;;;;;;33.63;20.53;;;;;;;18.71;100.00;101403.41;5033770;28;20533;-50
2022/08/27 00:16:41;;;;;;;32.63;22.70;;;;;;;18.65;100.00;101407.03;5034116;28;20442;-51
2022/08/27 00:19:10;;;;;;;24.23;18.60;;;;;;;18.62;100.00;101409.38;5033121;28;20463;-49
2022/08/27 00:21:38;;;;;;;26.27;18.87;;;;;;;18.63;100.00;101406.47;5033661;28;20490;-50
2022/08/27 00:24:06;;;;;;;32.30;19.27;;;;;;;18.65;100.00;101408.91;5033429;28;20439;-51
2022/08/27 00:26:34;;;;;;;30.93;18.97;;;;;;;18.64;100.00;101420.78;5033890;28;20432;-51
2022/08/27 00:29:03;;;;;;;30.67;20.10;;;;;;;18.59;100.00;101399.06;5033068;28;20463;-50
2022/08/27 00:31:31;;;;;;;38.67;21.67;;;;;;;18.60;100.00;101404.22;5033312;28;20456;-52
2022/08/27 00:34:01;;;;;;;36.90;21.10;;;;;;;18.63;100.00;101409.16;5033607;28;20466;-49
2022/08/27 00:36:28;;;;;;;29.60;20.00;;;;;;;18.59;100.00;101407.16;5033505;28;20424;-47
2022/08/27 00:38:56;;;;;;;28.33;18.93;;;;;;;18.61;100.00;101403.16;5032966;28;20435;-51
2022/08/27 00:41:24;;;;;;;34.43;19.13;;;;;;;18.58;100.00;101397.38;5033224;28;20482;-49
2022/08/27 00:43:56;;;;;;;23.93;20.00;;;;;;;18.55;100.00;101398.69;5033389;28;20432;-49
2022/08/27 00:46:27;;;;;;;31.80;19.93;;;;;;;18.53;100.00;101411.63;5033180;28;20924;-47
2022/08/27 00:48:58;;;;;;;25.60;18.63;;;;;;;18.50;100.00;101406.66;5032870;28;20799;-51
2022/08/27 00:51:28;;;;;;;34.30;18.80;;;;;;;18.53;100.00;101406.22;5033500;28;20448;-48
2022/08/27 00:53:58;;;;;;;27.07;19.70;;;;;;;18.55;100.00;101414.06;5033137;28;20454;-51
2022/08/27 00:56:29;;;;;;;32.43;18.30;;;;;;;18.49;100.00;101415.00;5033021;28;20934;-51
2022/08/27 00:58:57;;;;;;;35.90;19.20;;;;;;;18.48;100.00;101406.06;5032361;28;20767;-53
2022/08/27 01:01:27;;;;;;;24.20;16.97;;;;;;;18.47;100.00;101404.41;5032859;28;20480;-52
2022/08/27 01:03:58;;;;;;;36.97;18.03;;;;;;;18.46;100.00;101412.72;5032756;28;20443;-49
2022/08/27 01:06:32;;;;;;;32.00;18.97;;;;;;;18.47;100.00;101414.38;5032924;28;20428;-51
2022/08/27 01:09:04;;;;;;;35.17;19.60;;;;;;;18.45;100.00;101413.81;5032249;28;20464;-53
2022/08/27 01:11:32;;;;;;;24.17;17.83;;;;;;;18.41;100.00;101424.25;5032857;28;20448;-52
2022/08/27 01:14:00;;;;;;;31.53;19.40;;;;;;;18.36;100.00;101421.41;5032588;28;20455;-53
2022/08/27 01:16:34;;;;;;;33.23;19.57;;;;;;;18.33;100.00;101419.19;5032493;28;20458;-50
2022/08/27 01:19:07;;;;;;;31.00;18.60;;;;;;;18.31;100.00;101423.97;5032200;28;20477;-53
2022/08/27 01:21:42;;;;;;;29.17;17.73;;;;;;;18.33;100.00;101426.44;5032295;28;20555;-52
2022/08/27 01:24:23;;;;;;;29.13;18.47;;;;;;;18.28;100.00;101427.13;5032293;28;20941;-50
2022/08/27 01:26:52;;;;;;;27.97;17.60;;;;;;;18.23;100.00;101429.69;5032491;28;20872;-54
2022/08/27 01:29:19;;;;;;;26.90;18.40;;;;;;;18.14;100.00;101423.81;5031882;28;20614;-51
2022/08/27 01:31:47;;;;;;;33.87;17.03;;;;;;;18.16;100.00;101429.78;5032237;28;20451;-47
2022/08/27 01:34:15;;;;;;;35.63;18.70;;;;;;;18.12;100.00;101425.94;5032012;28;20439;-52
2022/08/27 01:36:43;;;;;;;30.10;19.47;;;;;;;18.14;100.00;101429.22;5031278;28;20436;-52
2022/08/27 01:39:10;;;;;;;32.73;19.63;;;;;;;18.12;100.00;101420.53;5031521;28;20461;-51
2022/08/27 01:41:41;;;;;;;31.10;18.77;;;;;;;18.11;100.00;101426.13;5032001;28;20480;-49
2022/08/27 01:44:08;;;;;;;31.97;18.10;;;;;;;18.07;100.00;101431.16;5032086;28;20455;-52
2022/08/27 01:46:36;;;;;;;29.00;17.17;;;;;;;18.09;100.00;101425.56;5031970;28;20917;-50
2022/08/27 01:49:03;;;;;;;38.53;17.80;;;;;;;18.13;100.00;101432.94;5031504;28;20471;-52
2022/08/27 01:51:31;;;;;;;30.27;18.17;;;;;;;18.08;100.00;101437.41;5031806;28;20980;-51
2022/08/27 01:53:59;;;;;;;29.10;18.10;;;;;;;18.12;100.00;101441.28;5031720;28;20439;-50
2022/08/27 01:56:26;;;;;;;25.60;16.73;;;;;;;18.07;100.00;101438.47;5032121;28;20455;-49
2022/08/27 01:58:55;;;;;;;22.70;15.20;;;;;;;17.97;100.00;101428.22;5031455;28;20436;-52
2022/08/27 02:01:23;;;;;;;22.83;14.60;;;;;;;18.00;100.00;101419.66;5031463;28;20479;-55
2022/08/27 02:03:51;;;;;;;34.77;15.13;;;;;;;17.95;100.00;101427.59;5031842;28;20486;-55
2022/08/27 02:06:18;;;;;;;21.33;14.40;;;;;;;17.95;100.00;101414.09;5032109;28;20432;-52
2022/08/27 02:08:46;;;;;;;27.80;15.40;;;;;;;18.03;100.00;101411.09;5031324;28;20435;-55
2022/08/27 02:11:13;;;;;;;27.37;15.90;;;;;;;18.05;100.00;101413.56;5031898;28;20435;-54
2022/08/27 02:13:41;;;;;;;26.73;17.40;;;;;;;18.07;100.00;101408.78;5031497;28;20436;-54
2022/08/27 02:16:10;;;;;;;26.60;17.20;;;;;;;18.09;100.00;101407.50;5031998;28;20530;-55
2022/08/27 02:18:38;;;;;;;29.40;14.90;;;;;;;18.04;100.00;101426.22;5031987;28;20439;-50
2022/08/27 02:21:09;;;;;;;25.90;15.40;;;;;;;18.06;100.00;101421.44;5031622;28;21275;-52
2022/08/27 02:23:38;;;;;;;24.20;16.17;;;;;;;18.00;100.00;101416.97;5031541;28;20436;-51
2022/08/27 02:26:06;;;;;;;24.07;17.00;;;;;;;17.92;100.00;101419.97;5031870;28;20439;-55
2022/08/27 02:28:34;;;;;;;24.57;15.60;;;;;;;17.88;100.00;101417.97;5035853;28;20432;-54
2022/08/27 02:31:02;;;;;;;28.80;17.13;;;;;;;17.83;100.00;101409.72;5035304;28;20513;-55
2022/08/27 02:33:31;;;;;;;25.97;17.00;;;;;;;17.78;100.00;101413.09;5035977;28;20436;-55
2022/08/27 02:35:59;;;;;;;28.53;17.90;;;;;;;17.77;100.00;101410.66;5035881;28;20439;-55
2022/08/27 02:38:27;;;;;;;30.83;18.87;;;;;;;17.75;100.00;101408.16;5036087;28;20940;-53
2022/08/27 02:40:54;;;;;;;24.60;18.07;;;;;;;17.71;100.00;101400.75;5035245;28;20459;-55
2022/08/27 02:43:22;;;;;;;26.63;17.97;;;;;;;17.63;100.00;101401.88;5035717;28;20459;-55
2022/08/27 02:45:52;;;;;;;30.10;17.70;;;;;;;17.60;100.00;101392.38;5036138;28;20840;-51
2022/08/27 02:48:20;;;;;;;35.27;18.73;;;;;;;17.61;100.00;101409.38;5035454;28;20445;-55
2022/08/27 02:50:49;;;;;;;25.33;16.80;;;;;;;17.56;100.00;101407.34;5035046;28;20913;-53
2022/08/27 02:53:18;;;;;;;21.80;15.67;;;;;;;17.54;100.00;101420.25;5035041;28;20973;-51
2022/08/27 02:55:45;;;;;;;31.43;15.27;;;;;;;17.44;100.00;101408.31;5035474;28;20447;-53
2022/08/27 02:58:15;;;;;;;16.40;13.27;;;;;;;17.44;100.00;101419.09;5035898;28;20783;-55
2022/08/27 03:00:43;;;;;;;20.53;13.57;;;;;;;17.41;100.00;101412.28;5034867;28;20467;-54
2022/08/27 03:03:11;;;;;;;19.43;13.00;;;;;;;17.43;100.00;101414.75;5034839;28;20483;-53
2022/08/27 03:05:39;;;;;;;20.70;12.80;;;;;;;17.43;100.00;101417.44;5035437;28;20436;-53
2022/08/27 03:08:08;;;;;;;23.70;12.93;;;;;;;17.42;100.00;101427.41;5035359;28;20435;-53
2022/08/27 03:10:36;;;;;;;15.57;11.70;;;;;;;17.45;100.00;101424.25;5034586;28;20479;-54
2022/08/27 03:13:03;;;;;;;15.87;10.90;;;;;;;17.37;100.00;101432.66;5035049;28;20452;-55
2022/08/27 03:15:31;;;;;;;11.60;10.40;;;;;;;17.36;100.00;101422.91;5035202;28;20431;-55
2022/08/27 03:20:46;;;;;;;22.00;11.63;;;;;;;17.39;100.00;101413.53;5034485;28;20474;-49
2022/08/27 03:23:17;;;;;;;15.93;10.93;;;;;;;17.44;100.00;101411.03;5034682;28;20482;-53
2022/08/27 03:25:50;;;;;;;13.53;10.20;;;;;;;17.39;100.00;101418.94;5034834;28;20440;-49
2022/08/27 03:28:18;;;;;;;13.00;9.20;;;;;;;17.39;100.00;101413.53;5034642;28;20428;-53
2022/08/27 03:30:52;;;;;;;19.33;11.00;;;;;;;17.40;100.00;101429.50;5033842;28;20472;-51
2022/08/27 03:33:21;;;;;;;16.77;10.10;;;;;;;17.36;100.00;101420.22;5034337;28;20447;-54
2022/08/27 03:35:49;;;;;;;13.33;10.50;;;;;;;17.37;100.00;101415.66;5034663;28;20440;-50
2022/08/27 03:38:22;;;;;;;19.30;10.40;;;;;;;17.39;100.00;101416.25;5034306;28;20979;-55
2022/08/27 03:40:50;;;;;;;13.00;10.37;;;;;;;17.39;100.00;101413.53;5034037;28;20471;-55
2022/08/27 03:43:20;;;;;;;16.70;10.37;;;;;;;17.41;100.00;101411.47;5034151;28;20479;-51
2022/08/27 03:45:48;;;;;;;17.80;10.73;;;;;;;17.39;100.00;101416.25;5034842;28;20473;-54
2022/08/27 03:48:29;;;;;;;13.80;10.00;;;;;;;17.38;100.00;101409.22;5034602;28;20436;-50
2022/08/27 03:50:57;;;;;;;16.70;8.80;;;;;;;17.39;100.00;101410.84;5033752;28;20470;-50
2022/08/27 03:53:27;;;;;;;15.20;9.30;;;;;;;17.36;100.00;101419.38;5033911;28;20428;-50
2022/08/27 03:55:54;;;;;;;16.23;9.87;;;;;;;17.33;100.00;101417.13;5034003;28;20562;-48
2022/08/27 03:58:22;;;;;;;15.50;10.20;;;;;;;17.29;100.00;101414.09;5034524;28;20436;-51
2022/08/27 04:00:49;;;;;;;19.00;9.60;;;;;;;17.26;100.00;101421.81;5033716;28;20837;-48
2022/08/27 04:03:17;;;;;;;15.43;10.67;;;;;;;17.23;100.00;101420.38;5033570;28;20841;-49
2022/08/27 04:05:45;;;;;;;18.33;10.43;;;;;;;17.12;100.00;101413.84;5034221;28;20435;-49
2022/08/27 04:08:12;;;;;;;27.60;11.57;;;;;;;17.10;100.00;101410.56;5033995;28;20436;-53
2022/08/27 04:10:42;;;;;;;19.63;10.47;;;;;;;17.10;100.00;101417.81;5033709;28;20460;-55
2022/08/27 04:13:10;;;;;;;21.10;10.87;;;;;;;17.14;100.00;101427.09;5034025;28;20476;-53
2022/08/27 04:15:42;;;;;;;17.07;10.27;;;;;;;17.15;100.00;101424.19;5034247;28;20440;-54
2022/08/27 04:18:10;;;;;;;20.90;10.73;;;;;;;17.17;100.00;101425.84;5033900;28;20428;-53
2022/08/27 04:20:38;;;;;;;14.93;10.57;;;;;;;17.18;100.00;101422.91;5033542;28;20500;-51
2022/08/27 04:23:06;;;;;;;18.30;10.50;;;;;;;17.21;100.00;101416.22;5033817;28;20483;-51
2022/08/27 04:25:33;;;;;;;16.33;9.83;;;;;;;17.17;100.00;101418.56;5033995;28;20447;-52
2022/08/27 04:28:03;;;;;;;15.73;9.63;;;;;;;17.22;100.00;101431.38;5033911;28;20432;-53
2022/08/27 04:30:31;;;;;;;14.77;9.60;;;;;;;17.24;100.00;101421.19;5033282;28;20464;-53
2022/08/27 04:32:59;;;;;;;17.40;8.40;;;;;;;17.24;100.00;101434.66;5033476;28;20455;-53
2022/08/27 04:35:26;;;;;;;18.50;9.20;;;;;;;17.18;100.00;101428.28;5033373;28;20439;-54
2022/08/27 04:37:54;;;;;;;16.17;9.37;;;;;;;17.22;100.00;101428.66;5033674;28;20803;-50
2022/08/27 04:41:18;;;;;;;11.63;8.93;;;;;;;17.22;100.00;101439.47;5032976;28;20987;-53
2022/08/27 04:43:12;;;;;;;18.27;10.77;;;;;;;17.27;100.00;101429.66;5033043;28;20475;-53
2022/08/27 04:45:44;;;;;;;22.83;10.07;;;;;;;17.25;100.00;101434.44;5033112;28;20435;-51
2022/08/27 04:48:13;;;;;;;11.97;9.93;;;;;;;17.22;100.00;101429.50;5033191;28;20964;-53
2022/08/27 04:50:42;;;;;;;17.03;9.00;;;;;;;17.27;100.00;101434.22;5032058;28;20470;-54
2022/08/27 04:53:10;;;;;;;13.83;10.20;;;;;;;17.27;100.00;101434.22;5032728;28;20452;-54
2022/08/27 04:55:41;;;;;;;17.87;11.17;;;;;;;17.25;100.00;101434.44;5013396;28;20433;-50
2022/08/27 04:58:10;;;;;;;17.43;10.73;;;;;;;17.22;100.00;101434.91;5013262;28;20433;-52
2022/08/27 05:00:42;;;;;;;18.93;11.13;;;;;;;17.24;100.00;101431.97;5012870;28;20469;-51
2022/08/27 05:03:09;;;;;;;17.90;10.27;;;;;;;17.17;100.00;101423.13;5012770;28;20820;-55
2022/08/27 05:05:37;;;;;;;13.67;10.13;;;;;;;17.13;100.00;101431.66;5013066;28;20951;-52
2022/08/27 05:08:11;;;;;;;15.27;10.03;;;;;;;17.12;100.00;101434.56;5013143;28;20429;-54
2022/08/27 05:10:41;;;;;;;19.13;10.00;;;;;;;17.14;100.00;101427.09;5012690;28;20835;-52
2022/08/27 05:13:09;;;;;;;13.07;9.77;;;;;;;17.16;100.00;101433.09;5012865;28;20456;-52
2022/08/27 05:15:38;;;;;;;15.27;8.90;;;;;;;17.11;100.00;101439.13;5012822;28;20456;-54
2022/08/27 05:18:07;;;;;;;13.83;8.80;;;;;;;17.04;100.00;101426.78;5013027;28;20479;-53
2022/08/27 05:20:42;;;;;;;13.07;9.13;;;;;;;17.04;100.00;101430.31;5012391;28;20465;-51
2022/08/27 05:23:10;;;;;;;11.80;8.40;;;;;;;17.04;100.00;101437.56;5012288;28;20985;-53
2022/08/27 05:25:39;;;;;;;9.53;8.00;;;;;;;17.02;100.00;101440.47;5012792;28;20441;-54
2022/08/27 05:28:06;;;;;;;13.13;7.53;;;;;;;16.99;100.00;101445.50;5012953;28;20433;-55
2022/08/27 05:30:40;;;;;;;13.77;7.00;;;;;;;16.96;100.00;101441.38;5012269;28;20468;-55
2022/08/27 05:33:09;;;;;;;16.27;7.87;;;;;;;16.97;100.00;101440.31;5012443;28;20448;-51
2022/08/27 05:35:40;;;;;;;12.03;7.70;;;;;;;16.92;100.00;101444.72;5012710;28;20451;-54
2022/08/27 05:38:08;;;;;;;15.70;7.30;;;;;;;16.88;100.00;101451.59;5012460;28;20957;-53
2022/08/27 05:40:37;;;;;;;9.80;6.67;;;;;;;16.82;100.00;101442.53;5011942;28;21320;-49
2022/08/27 05:43:05;;;;;;;6.90;6.33;;;;;;;16.78;100.00;101448.59;5012179;28;20476;-53
2022/08/27 05:45:33;;;;;;;13.80;7.17;;;;;;;16.85;100.00;101449.34;5012872;28;20439;-46
2022/08/27 05:48:02;;;;;;;12.67;6.90;;;;;;;16.83;100.00;101449.56;5012415;28;20444;-49
2022/08/27 05:50:30;;;;;;;15.13;5.93;;;;;;;16.79;100.00;101444.81;5011838;28;20475;-51
2022/08/27 05:52:58;;;;;;;10.97;6.70;;;;;;;16.75;100.00;101444.47;5027163;28;20448;-52
2022/08/27 05:55:25;;;;;;;9.00;6.77;;;;;;;16.76;100.00;101447.97;5031880;28;20436;-49
2022/08/27 05:57:53;;;;;;;9.00;6.10;;;;;;;16.79;100.00;101448.34;5031943;28;20463;-54
2022/08/27 06:03:08;;;;;;;9.73;6.47;;;;;;;16.83;100.00;101452.25;5030759;28;20986;-49
2022/08/27 06:05:36;;;;;;;7.80;7.00;;;;;;;16.85;100.00;101447.47;5031938;28;20447;-53
2022/08/27 06:08:04;;;;;;;7.73;5.30;;;;;;;16.94;100.00;101448.00;5031943;28;20435;-50
2022/08/27 06:10:32;;;;;;;7.30;5.90;;;;;;;16.94;100.00;101446.16;5030179;28;20467;-52
2022/08/27 06:12:59;;;;;;;9.20;6.63;;;;;;;16.98;100.00;101446.53;5031468;28;20456;-52
2022/08/27 06:15:28;;;;;;;10.50;6.57;;;;;;;16.97;100.00;101456.47;5031415;28;20442;-54
2022/08/27 06:17:55;;;;;;;10.10;6.37;;;;;;;17.03;100.00;101452.91;5031808;28;20438;-53
2022/08/27 06:20:25;;;;;;;13.50;6.77;;;;;;;17.07;100.00;101458.69;5031290;28;20837;-50
2022/08/27 06:22:54;;;;;;;7.63;5.47;;;;;;;17.15;100.00;101455.69;5031267;28;20466;-49
2022/08/27 06:25:22;;;;;;;12.80;5.70;;;;;;;17.20;100.00;101452.34;5031243;28;20436;-51
2022/08/27 06:27:49;;;;;;;13.57;6.20;;;;;;;17.25;100.00;101455.19;5031716;28;20435;-52
2022/08/27 06:30:17;;;;;;;6.90;5.10;;;;;;;17.27;100.00;101459.31;5031343;28;20460;-52
2022/08/27 06:32:45;;;;;;;8.30;5.80;;;;;;;17.27;100.00;101456.59;5031245;28;20968;-50
2022/08/27 06:35:12;;;;;;;5.97;5.27;;;;;;;17.28;100.00;101458.25;5031625;28;20432;-49
2022/08/27 06:37:41;;;;;;;5.57;4.93;;;;;;;17.32;100.00;101448.69;5031582;28;20436;-52
2022/08/27 06:40:10;;;;;;;18.60;6.57;;;;;;;17.39;100.00;101456.69;5030698;28;20494;-53
2022/08/27 06:42:38;;;;;;;11.73;5.37;;;;;;;17.39;100.00;101462.06;5031096;28;20795;-54
2022/08/27 06:45:07;;;;;;;6.87;5.40;;;;;;;17.43;100.00;101466.81;5031583;28;20902;-53
2022/08/27 06:47:34;;;;;;;7.03;6.33;;;;;;;17.39;100.00;101467.47;5031323;28;20443;-50
2022/08/27 06:50:02;;;;;;;12.13;6.30;;;;;;;17.38;100.00;101472.03;5030951;28;20463;-51
2022/08/27 06:52:30;;;;;;;15.13;6.43;;;;;;;17.30;100.00;101466.94;5030872;28;20458;-52
2022/08/27 06:54:59;;;;;;;14.17;6.83;;;;;;;17.32;100.00;101466.72;5030791;28;20428;-52
2022/08/27 06:57:27;;;;;;;10.80;6.53;;;;;;;17.33;100.00;101462.97;5031733;28;20794;-48
2022/08/27 06:59:54;;;;;;;12.53;6.40;;;;;;;17.46;100.00;101468.22;5030893;28;21004;-54
2022/08/27 07:02:22;;;;;;;10.50;7.07;;;;;;;17.51;100.00;101462.97;5030908;28;20460;-52
2022/08/27 07:04:53;;;;;;;9.60;6.00;;;;;;;17.67;100.00;101473.22;5029456;28;20522;-51
2022/08/27 07:07:23;;;;;;;10.57;6.57;;;;;;;17.75;100.00;101461.28;5030785;28;20432;-53
2022/08/27 07:10:07;;;;;;;8.83;7.17;;;;;;;17.64;100.00;101460.19;5030527;28;21001;-52
2022/08/27 07:12:34;;;;;;;9.13;7.33;;;;;;;17.62;100.00;101473.06;5031273;28;20456;-53
2022/08/27 07:15:04;;;;;;;9.70;6.87;;;;;;;17.63;100.00;101474.69;5034949;28;20457;-53
2022/08/27 07:17:31;;;;;;;10.60;6.57;;;;;;;17.68;100.00;101474.88;5034946;28;20447;-54
2022/08/27 07:20:00;;;;;;;10.97;6.03;;;;;;;17.55;100.00;101475.84;5033500;28;20878;-54
2022/08/27 07:22:28;;;;;;;7.83;6.13;;;;;;;17.55;100.00;101480.41;5034654;28;20463;-53
2022/08/27 07:24:56;;;;;;;8.27;5.93;;;;;;;17.51;100.00;101471.06;5034604;28;21011;-56
2022/08/27 07:27:25;;;;;;;15.33;6.97;;;;;;;17.73;100.00;101472.31;5035045;28;20436;-53
2022/08/27 07:29:52;;;;;;;7.63;6.50;;;;;;;17.89;100.00;101479.78;5034210;28;20467;-48
2022/08/27 07:32:20;;;;;;;8.33;6.37;;;;;;;18.18;100.00;101478.16;5034122;28;20455;-53
2022/08/27 07:34:56;;;;;;;14.63;6.30;;;;;;;18.37;100.00;101470.84;5034630;28;20436;-55
2022/08/27 07:37:24;;;;;;;6.30;4.67;;;;;;;18.53;99.82;101470.22;5034696;28;20809;-49
2022/08/27 07:40:02;;;;;;;8.77;5.70;;;;;;;18.59;96.99;101463.88;5033962;28;20471;-51
2022/08/27 07:45:16;;;;;;;7.97;5.33;;;;;;;18.90;95.07;101481.69;5034129;28;20471;-50
2022/08/27 07:47:45;;;;;;;7.70;6.17;;;;;;;18.96;95.02;101481.56;5034386;28;20439;-51
2022/08/27 07:50:13;;;;;;;7.53;5.30;;;;;;;19.21;94.09;101476.75;5033855;28;20467;-48
2022/08/27 07:52:42;;;;;;;6.50;5.00;;;;;;;19.27;91.90;101485.78;5033605;28;20977;-54
2022/08/27 07:55:10;;;;;;;10.63;5.80;;;;;;;19.58;91.23;101487.34;5034611;28;20993;-54
2022/08/27 07:57:40;;;;;;;11.70;5.70;;;;;;;19.55;89.34;101491.34;5034297;28;20427;-54
2022/08/27 08:00:10;;;;;;;8.63;5.33;;;;;;;19.54;88.38;101503.22;5032284;28;20468;-55
2022/08/27 08:02:40;;;;;;;18.10;6.30;;;;;;;19.45;87.24;101495.69;5033405;28;21095;-56
2022/08/27 08:05:09;;;;;;;11.90;6.23;;;;;;;19.45;87.86;101496.53;5033827;28;20985;-54
2022/08/27 08:07:37;;;;;;;11.37;5.40;;;;;;;19.50;86.67;101499.34;5033444;28;20930;-56
2022/08/27 08:10:06;;;;;;;8.83;6.30;;;;;;;19.86;86.32;101504.44;5033347;28;20471;-55
2022/08/27 08:12:35;;;;;;;8.70;5.40;;;;;;;20.17;81.80;101502.34;5033788;28;20451;-56
2022/08/27 08:15:05;;;;;;;12.47;5.97;;;;;;;20.23;82.79;101499.50;5033789;28;20436;-55
2022/08/27 08:17:34;;;;;;;10.07;5.77;;;;;;;20.06;81.24;101508.63;5033670;28;20948;-55
2022/08/27 08:20:02;;;;;;;9.83;4.97;;;;;;;20.10;82.71;101504.41;5033416;28;20459;-52
2022/08/27 08:22:49;;;;;;;11.57;5.40;;;;;;;20.34;80.99;101511.38;5033685;28;20459;-55
2022/08/27 08:25:17;;;;;;;11.63;5.20;;;;;;;20.28;78.01;101502.34;5032834;28;20487;-55
2022/08/27 08:27:46;;;;;;;9.77;5.50;;;;;;;20.46;78.55;101514.06;5033697;28;20501;-50
2022/08/27 08:30:16;;;;;;;6.80;5.57;;;;;;;20.40;78.17;101503.09;5032995;28;20466;-54
2022/08/27 08:32:43;;;;;;;10.57;5.37;;;;;;;20.42;78.13;101506.41;5033054;28;20451;-52
2022/08/27 08:35:11;;;;;;;11.77;5.97;;;;;;;20.58;76.95;101507.50;5033603;28;20432;-55
2022/08/27 08:37:39;;;;;;;10.53;5.80;;;;;;;20.40;78.11;101511.22;5033459;28;20435;-54
2022/08/27 08:40:07;;;;;;;9.43;6.00;;;;;;;20.57;78.21;101516.69;5032804;28;20475;-53
2022/08/27 08:42:41;;;;;;;12.10;5.20;;;;;;;20.49;76.60;101508.16;5033182;28;20456;-56
2022/08/27 08:45:18;;;;;;;8.73;5.80;;;;;;;20.38;76.46;101517.97;5033229;28;20482;-51
2022/08/27 08:47:51;;;;;;;8.03;5.17;;;;;;;20.30;76.24;101511.06;5033184;28;20428;-46
2022/08/27 08:50:25;;;;;;;12.50;5.27;;;;;;;20.05;75.82;101521.34;5032757;28;20463;-48
2022/08/27 08:52:58;;;;;;;10.70;5.20;;;;;;;20.05;76.80;101507.81;5032760;28;20452;-48
2022/08/27 08:55:40;;;;;;;7.73;5.17;;;;;;;20.07;79.89;101515.72;5033133;28;20443;-49
2022/08/27 08:58:15;;;;;;;11.30;5.13;;;;;;;20.00;77.83;101526.66;5032938;28;20427;-51
2022/08/27 09:00:46;;;;;;;10.03;5.43;;;;;;;20.09;75.65;101525.22;5032639;28;20459;-50
2022/08/27 09:03:16;;;;;;;5.87;5.27;;;;;;;20.16;74.53;101516.97;5032417;28;20460;-51
2022/08/27 09:05:48;;;;;;;7.27;5.70;;;;;;;20.23;75.03;101523.06;5032662;28;20474;-52
2022/08/27 09:08:23;;;;;;;7.10;5.03;;;;;;;20.23;75.83;101520.34;5032705;28;20428;-48
2022/08/27 09:11:12;;;;;;;8.77;5.10;;;;;;;20.21;76.22;101526.03;5032497;28;20949;-54
2022/08/27 09:13:43;;;;;;;6.07;4.13;;;;;;;20.37;74.08;101533.38;5032933;28;20416;-47
2022/08/27 09:16:12;;;;;;;8.27;4.90;;;;;;;20.58;72.24;101525.66;5032614;28;20435;-45
2022/08/27 09:18:40;;;;;;;6.80;4.50;;;;;;;20.62;72.39;101526.78;5031994;28;20506;-49
2022/08/27 09:21:20;;;;;;;9.77;5.40;;;;;;;20.71;71.23;101525.34;5032584;28;20853;-49
2022/08/27 09:24:04;;;;;;;10.00;5.50;;;;;;;20.81;72.04;101520.94;5032405;28;20471;-53
2022/08/27 09:26:37;;;;;;;8.37;5.47;;;;;;;20.84;72.86;101519.63;5032463;28;20525;-52
2022/08/27 09:29:18;;;;;;;10.33;5.17;;;;;;;21.02;70.91;101516.66;5032099;28;20462;-52
2022/08/27 09:31:53;;;;;;;7.43;6.03;;;;;;;21.34;69.53;101519.63;5032405;28;20454;-53
2022/08/27 09:34:22;;;;;;;12.50;6.40;;;;;;;21.14;67.28;101522.03;5032673;28;20431;-55
2022/08/27 09:36:55;;;;;;;9.03;6.87;;;;;;;21.19;69.03;101519.38;5032491;28;20436;-55
2022/08/27 09:39:29;;;;;;;9.63;6.67;;;;;;;21.14;69.70;101528.28;5031738;28;20829;-56
2022/08/27 09:41:57;;;;;;;12.53;6.27;;;;;;;21.34;67.19;101525.03;5032226;28;20972;-53
2022/08/27 09:44:24;;;;;;;13.40;7.03;;;;;;;21.20;68.68;101527.28;5032383;28;20443;-54
2022/08/27 09:46:57;;;;;;;7.97;6.40;;;;;;;21.33;69.31;101515.25;5032317;28;20475;-52
2022/08/27 09:49:26;;;;;;;7.77;6.10;;;;;;;21.28;66.75;101518.72;5031799;28;20463;-56
2022/08/27 09:51:55;;;;;;;9.20;6.23;;;;;;;21.27;68.62;101522.50;5031968;28;20451;-54
2022/08/27 09:54:36;;;;;;;5.83;5.33;;;;;;;21.49;66.23;101517.13;5014716;28;20432;-54
2022/08/27 09:57:05;;;;;;;8.23;5.27;;;;;;;21.50;65.99;101505.22;5012681;28;20792;-56
2022/08/27 09:59:36;;;;;;;9.83;6.10;;;;;;;21.49;70.39;101506.28;5011912;28;20962;-56
2022/08/27 10:02:13;;;;;;;8.73;6.13;;;;;;;21.55;66.50;101510.69;5011911;28;20464;-52
2022/08/27 10:04:43;;;;;;;8.27;5.80;;;;;;;21.87;66.57;101514.38;5012540;28;20416;-54
2022/08/27 10:07:30;;;;;;;6.27;4.87;;;;;;;21.95;64.94;101511.25;5012575;28;20420;-53
2022/08/27 10:10:09;;;;;;;7.43;5.50;;;;;;;21.92;65.55;101506.31;5011825;28;20464;-53
2022/08/27 10:12:47;;;;;;;8.63;5.07;;;;;;;21.83;63.10;101504.28;5012009;28;20448;-53
2022/08/27 10:15:15;;;;;;;7.00;4.93;;;;;;;21.61;64.46;101511.59;5012045;28;20439;-52
2022/08/27 10:17:57;;;;;;;12.43;6.07;;;;;;;21.65;63.25;101501.88;5022338;28;20442;-54
2022/08/27 10:20:34;;;;;;;11.03;5.57;;;;;;;21.89;64.16;101495.16;5031337;28;20463;-56
2022/08/27 10:23:11;;;;;;;6.70;4.67;;;;;;;22.19;64.21;101495.50;5031683;28;20538;-55
2022/08/27 10:25:48;;;;;;;10.10;5.43;;;;;;;22.24;61.62;101505.63;5031825;28;20485;-51
2022/08/27 10:28:28;;;;;;;6.03;4.67;;;;;;;22.07;62.49;101504.88;5031851;28;20440;-52
2022/08/27 10:31:15;;;;;;;8.90;5.30;;;;;;;22.16;63.88;101497.94;5031189;28;20467;-55
2022/08/27 10:33:56;;;;;;;10.87;5.20;;;;;;;22.42;62.51;101499.84;5031920;28;20534;-56
2022/08/27 10:36:35;;;;;;;7.20;4.40;;;;;;;22.27;61.16;101494.25;5031927;28;20412;-55
2022/08/27 10:39:11;;;;;;;7.57;4.93;;;;;;;22.40;61.38;101494.63;5030934;28;20452;-53
2022/08/27 10:41:43;;;;;;;9.13;5.70;;;;;;;22.46;61.60;101493.59;5031566;28;20451;-54
2022/08/27 10:44:25;;;;;;;8.47;5.03;;;;;;;22.55;61.36;101496.69;5031301;28;20436;-55
2022/08/27 10:47:10;;;;;;;6.13;4.57;;;;;;;22.58;61.29;101486.13;5031677;28;20506;-54
2022/08/27 10:49:49;;;;;;;7.60;4.50;;;;;;;22.81;61.65;101489.63;5034848;28;20474;-51
2022/08/27 10:52:23;;;;;;;8.40;4.77;;;;;;;22.94;59.13;101481.00;5034933;28;20953;-54
2022/08/27 10:54:56;;;;;;;10.43;4.97;;;;;;;23.05;59.39;101482.75;5035557;28;20444;-52
2022/08/27 10:57:37;;;;;;;7.50;4.30;;;;;;;22.94;60.43;101486.44;5035582;28;20435;-51
2022/08/27 11:00:24;;;;;;;6.13;4.63;;;;;;;23.04;60.18;101483.81;5034840;28;20463;-48
2022/08/27 11:02:54;;;;;;;10.60;5.43;;;;;;;23.36;58.44;101475.56;5034753;28;20466;-49
2022/08/27 11:05:27;;;;;;;12.60;4.80;;;;;;;23.05;57.65;101482.75;5035409;28;20431;-49
2022/08/27 11:08:00;;;;;;;7.37;4.57;;;;;;;23.25;57.96;101471.16;5035423;28;21141;-48
2022/08/27 11:10:29;;;;;;;5.83;4.67;;;;;;;23.36;56.31;101479.13;5054643;28;20472;-47
2022/08/27 11:13:00;;;;;;;6.67;4.20;;;;;;;23.63;56.50;101477.13;5054505;28;20455;-49
2022/08/27 11:15:32;;;;;;;5.80;4.73;;;;;;;23.76;58.54;101470.38;5054706;28;20792;-51
2022/08/27 11:18:05;;;;;;;12.07;5.00;;;;;;;23.83;57.12;101470.97;5054868;28;20437;-48
2022/08/27 11:20:40;;;;;;;6.03;3.80;;;;;;;23.69;56.04;101470.63;5054033;28;20462;-49
2022/08/27 11:23:12;;;;;;;5.13;4.37;;;;;;;23.37;55.49;101469.88;5054413;28;20458;-52
2022/08/27 11:25:50;;;;;;;5.23;4.10;;;;;;;23.41;55.83;101460.16;5054969;28;20438;-53
2022/08/27 11:28:20;;;;;;;11.40;4.90;;;;;;;23.43;56.07;101471.59;5054951;28;20431;-46
2022/08/27 11:31:04;;;;;;;7.60;4.30;;;;;;;23.66;52.85;101460.25;5054344;28;20466;-51
2022/08/27 11:33:38;;;;;;;6.83;4.33;;;;;;;23.81;54.54;101461.38;5054330;28;20430;-51
2022/08/27 11:36:40;;;;;;;6.67;4.73;;;;;;;23.68;54.94;101473.63;5054029;28;20437;-50